createdAt,value
2018-06-03T00:02:18.673Z,25.92
2018-06-03T00:04:49.502Z,25.93
2018-06-03T00:07:21.113Z,25.79
2018-06-03T00:09:51.844Z,25.70
2018-06-03T00:12:22.695Z,25.62
2018-06-03T00:14:55.346Z,25.57
2018-06-03T00:17:26.989Z,25.61
2018-06-03T00:19:58.621Z,25.60
2018-06-03T00:22:32.406Z,25.20
2018-06-03T00:25:06.280Z,25.16
2018-06-03T00:27:39.985Z,24.94
2018-06-03T00:30:13.679Z,24.92
2018-06-03T00:32:45.145Z,24.78
2018-06-03T00:35:16.450Z,24.86
2018-06-03T00:37:49.511Z,24.84
2018-06-03T00:40:21.644Z,24.88
2018-06-03T00:42:53.036Z,25.18
2018-06-03T00:45:24.746Z,25.02
2018-06-03T00:47:56.068Z,25.05
2018-06-03T00:50:28.276Z,25.13
2018-06-03T00:52:59.658Z,25.20
2018-06-03T00:55:32.891Z,25.19
2018-06-03T00:58:04.341Z,25.27
2018-06-03T01:00:38.622Z,25.26
2018-06-03T01:03:11.919Z,25.29
2018-06-03T01:05:45.953Z,25.52
2018-06-03T01:08:17.268Z,25.45
2018-06-03T01:10:49.493Z,25.47
2018-06-03T01:13:21.777Z,25.60
2018-06-03T01:15:54.092Z,25.67
2018-06-03T01:18:26.281Z,25.59
2018-06-03T01:20:59.490Z,25.63
2018-06-03T01:23:33.038Z,25.41
2018-06-03T01:26:07.200Z,25.40
2018-06-03T01:28:40.732Z,25.44
2018-06-03T01:31:12.870Z,25.56
2018-06-03T01:33:44.321Z,25.63
2018-06-03T01:36:16.497Z,25.61
2018-06-03T01:38:50.851Z,25.49
2018-06-03T01:41:24.737Z,25.36
2018-06-03T01:43:56.122Z,25.47
2018-06-03T01:46:30.374Z,25.64
2018-06-03T01:49:41.266Z,25.53
2018-06-03T01:52:13.537Z,25.58
2018-06-03T01:54:46.795Z,25.32
2018-06-03T01:57:19.911Z,25.11
2018-06-03T01:59:53.105Z,25.08
2018-06-03T02:02:26.999Z,25.04
2018-06-03T02:05:00.381Z,25.03
2018-06-03T02:07:33.377Z,24.89
2018-06-03T02:10:07.322Z,24.89
2018-06-03T02:12:40.712Z,24.87
2018-06-03T02:15:16.012Z,24.82
2018-06-03T02:17:49.326Z,24.68
2018-06-03T02:20:21.785Z,24.68
2018-06-03T02:22:54.923Z,24.67
2018-06-03T02:25:28.906Z,24.56
2018-06-03T02:28:01.096Z,24.58
2018-06-03T02:30:34.484Z,24.51
2018-06-03T02:33:06.696Z,24.47
2018-06-03T02:35:40.597Z,24.32
2018-06-03T02:38:13.140Z,24.32
2018-06-03T02:40:45.306Z,24.30
2018-06-03T02:43:18.503Z,24.39
2018-06-03T02:45:51.870Z,24.31
2018-06-03T02:48:24.050Z,24.32
2018-06-03T02:50:56.337Z,24.25
2018-06-03T02:53:29.514Z,24.29
2018-06-03T02:56:03.274Z,24.28
2018-06-03T02:58:34.886Z,24.28
2018-06-03T03:01:07.086Z,24.20
2018-06-03T03:03:40.287Z,24.16
2018-06-03T03:06:13.331Z,24.03
2018-06-03T03:08:44.823Z,23.88
2018-06-03T03:11:17.306Z,23.82
2018-06-03T03:13:49.601Z,23.79
2018-06-03T03:16:23.964Z,23.75
2018-06-03T03:18:58.161Z,23.79
2018-06-03T03:21:30.836Z,23.83
2018-06-03T03:24:04.316Z,23.80
2018-06-03T03:26:37.877Z,23.92
2018-06-03T03:29:09.780Z,24.13
2018-06-03T03:31:41.588Z,24.21
2018-06-03T03:34:15.461Z,24.37
2018-06-03T03:36:49.756Z,24.43
2018-06-03T03:39:24.401Z,24.45
2018-06-03T03:41:58.190Z,24.50
2018-06-03T03:44:29.653Z,24.57
2018-06-03T03:47:02.059Z,24.55
2018-06-03T03:49:33.361Z,24.63
2018-06-03T03:52:04.648Z,24.65
2018-06-03T03:54:37.164Z,24.55
2018-06-03T03:57:09.103Z,24.48
2018-06-03T03:59:40.462Z,24.40
2018-06-03T04:02:10.822Z,24.26
2018-06-03T04:04:42.178Z,24.30
2018-06-03T04:07:14.829Z,24.33
2018-06-03T04:09:45.256Z,24.37
2018-06-03T04:12:17.562Z,24.38
2018-06-03T04:14:49.807Z,24.30
2018-06-03T04:17:22.131Z,24.51
2018-06-03T04:19:54.720Z,25.14
2018-06-03T04:22:26.125Z,25.84
2018-06-03T04:24:57.559Z,26.36
2018-06-03T04:27:30.334Z,27.01
2018-06-03T04:30:01.726Z,27.36
2018-06-03T04:32:35.863Z,27.57
2018-06-03T04:35:08.277Z,27.76
2018-06-03T04:37:39.579Z,28.04
2018-06-03T04:40:12.830Z,28.45
2018-06-03T04:42:44.125Z,29.07
2018-06-03T04:45:16.914Z,29.67
2018-06-03T04:47:49.121Z,29.90
2018-06-03T04:50:21.797Z,30.05
2018-06-03T04:52:54.022Z,30.18
2018-06-03T04:55:25.381Z,30.34
2018-06-03T04:57:57.869Z,30.70
2018-06-03T05:00:30.182Z,31.26
2018-06-03T05:03:01.326Z,31.78
2018-06-03T05:05:34.894Z,32.22
2018-06-03T05:08:08.894Z,32.60
2018-06-03T05:10:40.169Z,32.93
2018-06-03T05:13:12.082Z,32.93
2018-06-03T05:15:43.312Z,33.07
2018-06-03T05:18:15.208Z,33.12
2018-06-03T05:20:46.626Z,33.47
2018-06-03T05:23:18.519Z,33.48
2018-06-03T05:25:49.823Z,33.53
2018-06-03T05:28:21.177Z,33.43
2018-06-03T05:30:53.761Z,33.41
2018-06-03T05:33:25.234Z,33.61
2018-06-03T05:35:56.693Z,33.84
2018-06-03T05:38:29.023Z,33.93
2018-06-03T05:41:01.292Z,34.10
2018-06-03T05:43:32.597Z,34.44
2018-06-03T05:46:03.897Z,34.50
2018-06-03T05:48:35.549Z,34.32
2018-06-03T05:51:07.061Z,34.31
2018-06-03T05:53:38.411Z,34.35
2018-06-03T05:56:10.290Z,34.11
2018-06-03T05:58:41.816Z,34.36
2018-06-03T06:01:14.554Z,34.46
2018-06-03T06:03:47.939Z,34.80
2018-06-03T06:06:19.421Z,34.80
2018-06-03T06:08:50.730Z,35.19
2018-06-03T06:11:22.068Z,35.16
2018-06-03T06:13:53.345Z,35.32
2018-06-03T06:16:25.703Z,35.51
2018-06-03T06:18:57.073Z,35.43
2018-06-03T06:21:28.414Z,35.58
2018-06-03T06:23:59.744Z,35.71
2018-06-03T06:26:31.015Z,35.65
2018-06-03T06:29:02.405Z,35.83
2018-06-03T06:31:33.730Z,36.29
2018-06-03T06:34:05.021Z,36.74
2018-06-03T06:36:36.326Z,37.29
2018-06-03T06:39:07.976Z,37.56
2018-06-03T06:41:39.352Z,37.51
2018-06-03T06:44:10.939Z,37.57
2018-06-03T06:46:43.174Z,37.73
2018-06-03T06:49:15.779Z,37.79
2018-06-03T06:51:47.064Z,38.01
2018-06-03T06:54:21.567Z,38.06
2018-06-03T06:56:53.220Z,38.27
2018-06-03T06:59:25.447Z,38.35
2018-06-03T07:01:57.192Z,38.56
2018-06-03T07:04:31.858Z,38.68
2018-06-03T07:07:03.533Z,38.97
2018-06-03T07:09:37.445Z,39.29
2018-06-03T07:12:12.882Z,39.61
2018-06-03T07:14:46.023Z,39.42
2018-06-03T07:17:19.407Z,39.60
2018-06-03T07:19:52.482Z,39.62
2018-06-03T07:22:26.918Z,39.51
2018-06-03T07:25:00.341Z,38.77
2018-06-03T07:27:34.400Z,39.00
2018-06-03T07:30:07.604Z,38.95
2018-06-03T07:32:43.175Z,38.76
2018-06-03T07:35:16.432Z,39.38
2018-06-03T07:37:49.954Z,39.64
2018-06-03T07:40:23.877Z,40.12
2018-06-03T07:42:57.471Z,40.29
2018-06-03T07:45:30.509Z,40.33
2018-06-03T07:48:03.959Z,40.51
2018-06-03T07:50:37.073Z,40.63
2018-06-03T07:53:10.208Z,40.58
2018-06-03T07:55:43.835Z,40.16
2018-06-03T07:58:17.292Z,39.95
2018-06-03T08:00:50.440Z,40.22
2018-06-03T08:03:23.572Z,40.40
2018-06-03T08:05:57.128Z,40.57
2018-06-03T08:08:31.369Z,40.44
2018-06-03T08:11:04.883Z,39.72
2018-06-03T08:13:39.721Z,39.41
2018-06-03T08:16:13.048Z,40.03
2018-06-03T08:18:48.016Z,40.30
2018-06-03T08:21:21.363Z,40.40
2018-06-03T08:23:55.067Z,40.42
2018-06-03T08:26:28.292Z,40.19
2018-06-03T08:29:01.875Z,40.43
2018-06-03T08:31:35.956Z,40.70
2018-06-03T08:34:09.457Z,40.65
2018-06-03T08:36:42.595Z,40.33
2018-06-03T08:39:15.824Z,40.26
2018-06-03T08:41:49.226Z,40.03
2018-06-03T08:44:23.848Z,40.51
2018-06-03T08:46:57.329Z,40.55
2018-06-03T08:49:30.299Z,40.12
2018-06-03T08:52:03.929Z,40.08
2018-06-03T08:54:37.581Z,39.52
2018-06-03T08:57:10.716Z,39.38
2018-06-03T08:59:44.769Z,39.65
2018-06-03T09:02:18.041Z,40.19
2018-06-03T09:04:51.756Z,40.26
2018-06-03T09:07:24.976Z,40.21
2018-06-03T09:09:58.427Z,40.49
2018-06-03T09:12:32.389Z,40.70
2018-06-03T09:15:07.242Z,40.18
2018-06-03T09:17:40.563Z,39.81
2018-06-03T09:20:13.848Z,40.03
2018-06-03T09:22:47.157Z,40.29
2018-06-03T09:25:20.948Z,40.43
2018-06-03T09:27:54.159Z,40.19
2018-06-03T09:30:27.585Z,39.90
2018-06-03T09:33:00.882Z,39.51
2018-06-03T09:35:34.651Z,39.25
2018-06-03T09:38:07.801Z,39.02
2018-06-03T09:40:41.259Z,38.84
2018-06-03T09:43:14.365Z,38.71
2018-06-03T09:45:47.908Z,38.70
2018-06-03T09:48:21.283Z,38.86
2018-06-03T09:50:54.742Z,38.91
2018-06-03T09:53:27.926Z,38.82
2018-06-03T09:56:01.464Z,38.38
2018-06-03T09:58:35.892Z,37.83
2018-06-03T10:01:10.367Z,37.49
2018-06-03T10:03:43.711Z,37.40
2018-06-03T10:06:17.355Z,37.12
2018-06-03T10:08:50.582Z,36.93
2018-06-03T10:11:24.098Z,36.96
2018-06-03T10:13:57.230Z,36.73
2018-06-03T10:16:31.763Z,37.05
2018-06-03T10:19:10.407Z,37.18
2018-06-03T10:21:44.336Z,37.81
2018-06-03T10:24:18.611Z,38.23
2018-06-03T10:26:51.700Z,38.31
2018-06-03T10:29:24.793Z,38.60
2018-06-03T10:31:57.957Z,38.98
2018-06-03T10:34:32.029Z,39.03
2018-06-03T10:37:05.157Z,39.02
2018-06-03T10:39:38.976Z,38.61
2018-06-03T10:42:12.094Z,38.26
2018-06-03T10:44:45.331Z,38.67
2018-06-03T10:47:18.506Z,38.93
2018-06-03T10:49:51.755Z,38.93
2018-06-03T10:52:25.099Z,39.37
2018-06-03T10:54:58.197Z,39.93
2018-06-03T10:57:31.478Z,40.10
2018-06-03T11:00:08.451Z,40.33
2018-06-03T11:02:42.003Z,40.58
2018-06-03T11:05:15.316Z,40.60
2018-06-03T11:07:48.754Z,40.23
2018-06-03T11:10:22.369Z,40.07
2018-06-03T11:12:55.612Z,40.09
2018-06-03T11:15:28.814Z,40.13
2018-06-03T11:18:01.961Z,39.84
2018-06-03T11:20:37.325Z,39.38
2018-06-03T11:23:10.352Z,38.42
2018-06-03T11:25:43.951Z,38.49
2018-06-03T11:28:17.117Z,38.82
2018-06-03T11:30:50.312Z,38.92
2018-06-03T11:33:23.922Z,39.10
2018-06-03T11:35:57.169Z,39.67
2018-06-03T11:38:30.432Z,40.41
2018-06-03T11:41:03.677Z,40.90
2018-06-03T11:43:37.551Z,41.35
2018-06-03T11:46:10.731Z,41.61
2018-06-03T11:48:44.263Z,40.99
2018-06-03T11:51:17.570Z,41.08
2018-06-03T11:53:50.825Z,41.52
2018-06-03T11:56:28.926Z,41.75
2018-06-03T11:59:12.049Z,41.94
2018-06-03T12:01:45.359Z,41.21
2018-06-03T12:04:18.575Z,41.34
2018-06-03T12:06:51.694Z,41.88
2018-06-03T12:09:25.014Z,41.68
2018-06-03T12:11:58.282Z,41.38
2018-06-03T12:14:31.552Z,41.33
2018-06-03T12:17:06.965Z,41.00
2018-06-03T12:19:40.698Z,40.59
2018-06-03T12:22:13.826Z,40.01
2018-06-03T12:24:48.207Z,39.26
2018-06-03T12:27:21.452Z,38.81
2018-06-03T12:29:54.697Z,38.49
2018-06-03T12:32:28.100Z,38.17
2018-06-03T12:35:01.288Z,37.88
2018-06-03T12:37:34.487Z,37.55
2018-06-03T12:40:07.894Z,37.35
2018-06-03T12:42:41.084Z,37.42
2018-06-03T12:45:17.784Z,37.75
2018-06-03T12:47:51.253Z,38.05
2018-06-03T12:50:25.563Z,38.16
2018-06-03T12:52:58.855Z,38.76
2018-06-03T12:55:32.056Z,39.38
2018-06-03T12:58:06.112Z,39.77
2018-06-03T13:00:39.297Z,40.19
2018-06-03T13:03:12.566Z,40.50
2018-06-03T13:05:46.198Z,41.08
2018-06-03T13:08:19.522Z,40.96
2018-06-03T13:10:52.716Z,40.52
2018-06-03T13:13:26.169Z,40.13
2018-06-03T13:15:59.980Z,39.86
2018-06-03T13:18:33.933Z,39.95
2018-06-03T13:21:07.456Z,40.30
2018-06-03T13:23:40.645Z,40.79
2018-06-03T13:28:42.585Z,40.80
2018-06-03T13:31:15.747Z,40.88
2018-06-03T13:33:49.262Z,40.87
2018-06-03T13:36:22.458Z,41.04
2018-06-03T13:38:55.799Z,40.41
2018-06-03T13:41:29.371Z,40.05
2018-06-03T13:44:03.066Z,39.83
2018-06-03T13:46:36.295Z,39.75
2018-06-03T13:49:09.770Z,39.81
2018-06-03T13:51:42.953Z,39.73
2018-06-03T13:54:17.474Z,39.79
2018-06-03T13:56:50.642Z,40.40
2018-06-03T13:59:25.377Z,41.00
2018-06-03T14:02:00.173Z,40.75
2018-06-03T14:04:36.763Z,40.74
2018-06-03T14:07:11.546Z,40.83
2018-06-03T14:09:47.747Z,40.43
2018-06-03T14:12:22.429Z,40.26
2018-06-03T14:14:56.175Z,40.13
2018-06-03T14:17:30.481Z,39.88
2018-06-03T14:20:04.024Z,39.88
2018-06-03T14:22:37.256Z,40.40
2018-06-03T14:25:10.475Z,40.85
2018-06-03T14:27:44.472Z,41.10
2018-06-03T14:30:18.776Z,41.46
2018-06-03T14:32:52.201Z,41.34
2018-06-03T14:35:25.473Z,41.40
2018-06-03T14:37:58.301Z,41.37
2018-06-03T14:40:31.643Z,41.21
2018-06-03T14:43:04.588Z,40.96
2018-06-03T14:45:38.683Z,40.45
2018-06-03T14:48:11.601Z,40.88
2018-06-03T14:50:46.865Z,41.46
2018-06-03T14:53:19.980Z,41.77
2018-06-03T14:55:52.941Z,41.64
2018-06-03T14:58:26.182Z,41.58
2018-06-03T15:00:59.428Z,41.24
2018-06-03T15:03:32.602Z,41.12
2018-06-03T15:06:05.526Z,40.86
2018-06-03T15:08:38.343Z,40.64
2018-06-03T15:11:11.516Z,40.10
2018-06-03T15:13:45.084Z,39.51
2018-06-03T15:16:18.798Z,39.08
2018-06-03T15:18:51.635Z,39.17
2018-06-03T15:21:24.601Z,39.25
2018-06-03T15:23:57.788Z,39.63
2018-06-03T15:26:31.017Z,39.86
2018-06-03T15:29:03.876Z,40.01
2018-06-03T15:31:37.050Z,40.51
2018-06-03T15:34:10.010Z,40.67
2018-06-03T15:36:43.275Z,40.70
2018-06-03T15:39:16.253Z,40.50
2018-06-03T15:41:49.238Z,40.20
2018-06-03T15:44:22.092Z,40.20
2018-06-03T15:46:55.042Z,40.33
2018-06-03T15:49:28.127Z,40.25
2018-06-03T15:52:01.043Z,40.03
2018-06-03T15:54:34.053Z,40.05
2018-06-03T15:57:06.961Z,39.70
2018-06-03T15:59:41.029Z,39.38
2018-06-03T16:02:14.203Z,39.25
2018-06-03T16:04:47.377Z,39.37
2018-06-03T16:07:20.521Z,39.41
2018-06-03T16:09:53.709Z,39.49
2018-06-03T16:12:26.932Z,39.78
2018-06-03T16:14:59.746Z,40.16
2018-06-03T16:17:32.804Z,40.40
2018-06-03T16:20:05.878Z,40.55
2018-06-03T16:22:39.104Z,40.50
2018-06-03T16:25:12.128Z,40.01
2018-06-03T16:27:45.446Z,40.56
2018-06-03T16:30:18.481Z,40.57
2018-06-03T16:32:51.773Z,40.35
2018-06-03T16:35:24.956Z,40.59
2018-06-03T16:37:58.397Z,40.77
2018-06-03T16:40:31.706Z,40.82
2018-06-03T16:43:05.676Z,40.72
2018-06-03T16:45:38.782Z,40.54
2018-06-03T16:48:12.155Z,40.37
2018-06-03T16:53:16.017Z,39.98
2018-06-03T16:55:49.534Z,39.67
2018-06-03T16:58:22.451Z,39.78
2018-06-03T17:00:55.404Z,39.74
2018-06-03T17:03:28.735Z,39.46
2018-06-03T17:06:01.712Z,39.41
2018-06-03T17:08:34.717Z,39.37
2018-06-03T17:11:07.630Z,39.30
2018-06-03T17:13:40.556Z,39.07
2018-06-03T17:16:13.684Z,39.04
2018-06-03T17:18:47.809Z,39.35
2018-06-03T17:21:20.738Z,39.38
2018-06-03T17:23:53.908Z,39.53
2018-06-03T17:26:26.864Z,39.89
2018-06-03T17:29:02.152Z,39.99
2018-06-03T17:31:35.410Z,39.77
2018-06-03T17:34:08.764Z,39.73
2018-06-03T17:36:41.880Z,39.89
2018-06-03T17:39:15.191Z,39.66
2018-06-03T17:41:49.090Z,39.58
2018-06-03T17:44:22.161Z,39.41
2018-06-03T17:46:55.027Z,39.12
2018-06-03T17:49:28.785Z,39.40
2018-06-03T17:52:01.663Z,39.71
2018-06-03T17:54:34.703Z,39.44
2018-06-03T17:57:07.655Z,39.23
2018-06-03T17:59:40.882Z,38.91
2018-06-03T18:02:13.707Z,38.20
2018-06-03T18:04:46.659Z,37.39
2018-06-03T18:07:19.575Z,36.68
2018-06-03T18:09:52.500Z,36.16
2018-06-03T18:12:25.346Z,35.66
2018-06-03T18:14:58.260Z,35.40
2018-06-03T18:17:31.610Z,35.04
2018-06-03T18:20:04.695Z,34.72
2018-06-03T18:22:37.548Z,34.45
2018-06-03T18:25:10.543Z,34.22
2018-06-03T18:27:44.301Z,34.14
2018-06-03T18:30:17.294Z,34.12
2018-06-03T18:32:50.210Z,33.72
2018-06-03T18:35:23.234Z,33.60
2018-06-03T18:37:56.135Z,33.42
2018-06-03T18:40:29.400Z,33.28
2018-06-03T18:43:02.419Z,33.08
2018-06-03T18:45:35.582Z,32.94
2018-06-03T18:48:08.471Z,32.82
2018-06-03T18:50:41.312Z,32.76
2018-06-03T18:53:14.272Z,32.63
2018-06-03T18:55:47.150Z,32.63
2018-06-03T18:58:20.170Z,32.59
2018-06-03T19:00:53.332Z,32.65
2018-06-03T19:03:26.293Z,32.66
2018-06-03T19:05:59.128Z,32.45
2018-06-03T19:08:33.346Z,32.30
2018-06-03T19:11:06.216Z,32.30
2018-06-03T19:13:39.994Z,32.31
2018-06-03T19:16:12.093Z,32.29
2018-06-03T19:18:44.907Z,32.12
2018-06-03T19:21:17.900Z,31.92
2018-06-03T19:23:51.133Z,31.65
2018-06-03T19:26:23.960Z,31.49
2018-06-03T19:28:59.285Z,31.26
2018-06-03T19:31:32.232Z,30.98
2018-06-03T19:34:05.143Z,30.83
2018-06-03T19:36:38.255Z,30.85
2018-06-03T19:39:11.462Z,30.83
2018-06-03T19:41:44.384Z,30.78
2018-06-03T19:44:17.303Z,30.70
2018-06-03T19:46:50.221Z,30.59
2018-06-03T19:49:23.114Z,30.44
2018-06-03T19:51:56.848Z,30.36
2018-06-03T19:54:29.731Z,30.21
2018-06-03T19:57:02.694Z,30.15
2018-06-03T19:59:36.989Z,30.10
2018-06-03T20:02:09.054Z,29.93
2018-06-03T20:04:42.017Z,29.82
2018-06-03T20:07:15.381Z,29.78
2018-06-03T20:09:49.281Z,29.66
2018-06-03T20:12:20.289Z,29.62
2018-06-03T20:14:51.444Z,29.56
2018-06-03T20:17:22.564Z,29.54
2018-06-03T20:19:55.812Z,29.44
2018-06-03T20:22:26.903Z,29.43
2018-06-03T20:24:58.931Z,29.37
2018-06-03T20:27:30.391Z,29.24
2018-06-03T20:30:03.672Z,29.18
2018-06-03T20:32:35.962Z,29.21
2018-06-03T20:35:06.984Z,29.14
2018-06-03T20:37:39.047Z,28.56
2018-06-03T20:40:10.769Z,28.99
2018-06-03T20:42:42.108Z,28.92
2018-06-03T20:45:15.157Z,28.87
2018-06-03T20:47:46.238Z,28.91
2018-06-03T20:50:18.206Z,28.89
2018-06-03T20:52:50.573Z,28.83
2018-06-03T20:55:21.605Z,28.78
2018-06-03T20:57:53.560Z,28.71
2018-06-03T21:00:25.537Z,28.68
2018-06-03T21:02:57.395Z,28.69
2018-06-03T21:05:28.808Z,28.63
2018-06-03T21:08:00.716Z,28.67
2018-06-03T21:10:30.936Z,28.59
2018-06-03T21:13:03.210Z,28.53
2018-06-03T21:15:35.139Z,28.44
2018-06-03T21:18:05.354Z,28.37
2018-06-03T21:20:37.667Z,28.28
2018-06-03T21:23:07.892Z,28.30
2018-06-03T21:25:38.127Z,28.30
2018-06-03T21:28:10.509Z,28.32
2018-06-03T21:30:41.201Z,28.31
2018-06-03T21:33:13.272Z,28.10
2018-06-03T21:35:44.516Z,28.01
2018-06-03T21:38:16.650Z,28.11
2018-06-03T21:40:47.826Z,28.03
2018-06-03T21:43:21.900Z,28.04
2018-06-03T21:45:52.174Z,28.06
2018-06-03T21:48:22.386Z,28.10
2018-06-03T21:50:53.625Z,28.06
2018-06-03T21:53:23.806Z,28.01
2018-06-03T21:55:57.118Z,28.02
2018-06-03T21:58:29.829Z,28.02
2018-06-03T22:01:01.896Z,28.00
2018-06-03T22:06:02.910Z,27.99
2018-06-03T22:08:33.056Z,27.98
2018-06-03T22:11:03.310Z,27.94
2018-06-03T22:13:36.807Z,28.04
2018-06-03T22:16:07.216Z,27.96
2018-06-03T22:18:39.198Z,27.90
2018-06-03T22:21:10.025Z,27.79
2018-06-03T22:23:42.328Z,27.81
2018-06-03T22:26:12.585Z,27.78
2018-06-03T22:28:45.114Z,27.02
2018-06-03T22:31:15.347Z,27.73
2018-06-03T22:33:45.937Z,27.72
2018-06-03T22:36:16.131Z,27.76
2018-06-03T22:38:46.395Z,27.44
2018-06-03T22:41:16.707Z,27.74
2018-06-03T22:43:48.794Z,27.67
2018-06-03T22:46:19.469Z,27.68
2018-06-03T22:48:49.621Z,27.70
2018-06-03T22:51:19.808Z,27.65
2018-06-03T22:53:50.011Z,27.63
2018-06-03T22:56:20.184Z,27.78
2018-06-03T22:58:50.841Z,27.81
2018-06-03T23:01:20.919Z,27.82
2018-06-03T23:03:51.364Z,27.74
2018-06-03T23:06:22.008Z,27.74
2018-06-03T23:08:52.538Z,27.73
2018-06-03T23:11:25.690Z,27.69
2018-06-03T23:13:56.329Z,27.80
2018-06-03T23:16:28.526Z,27.86
2018-06-03T23:19:00.922Z,27.79
2018-06-03T23:21:33.216Z,27.79
2018-06-03T23:24:03.763Z,27.77
2018-06-03T23:26:34.301Z,27.87
2018-06-03T23:29:04.840Z,27.76
2018-06-03T23:31:35.742Z,27.82
2018-06-03T23:34:06.267Z,27.75
2018-06-03T23:36:36.699Z,27.75
2018-06-03T23:39:09.500Z,27.80
2018-06-03T23:41:40.123Z,27.83
2018-06-03T23:44:12.399Z,27.83
2018-06-03T23:46:43.138Z,27.81
2018-06-03T23:49:15.576Z,27.84
2018-06-03T23:51:48.279Z,27.77
2018-06-03T23:54:18.818Z,27.69
2018-06-03T23:56:49.257Z,27.68
2018-06-03T23:59:25.005Z,27.60
